Weather observations for the past three days for
Eagle Pass - Maverick County Memorial International Airport
Imperial (Metric)
Date Time (cdt) Wind (mph) Vis. (mi.) Weather Sky Cond. Temperature (ºF) Relative Humidity Wind Chill (°F) Heat Index (°F) Pressure Precipitation (in)
Air Dwpt 6 hour altimeter (in) sea level (mb) 1 hr 3 hr 6 hr
Max. Min.
31 17:15 E 9 G 16 6.00 A Few Clouds with Haze FEW075 FEW085 102.2 66.2 31% 107 29.83 0.0
31 16:55 E 15 6.00 A Few Clouds with Haze FEW070 102.2 66.2 31% 107 29.83 0.0
31 16:35 E 14 6.00 Fair with Haze CLR 100.4 68 35% 106 29.84 0.0
31 16:15 SE 15 G 23 5.00 A Few Clouds with Haze FEW065 100.4 69.8 37% 108 29.86 0.0
31 15:55 E 13 G 18 5.00 Partly Cloudy with Haze SCT065 98.6 69.8 39% 106 29.87 0.0
31 15:35 SE 9 G 21 6.00 Fair with Haze CLR 100.4 69.8 37% 108 29.88 0.0
31 15:15 E 10 G 18 5.00 Fair with Haze CLR 100.4 69.8 37% 108 29.89 0.0
31 14:55 E 10 G 18 5.00 Fair with Haze CLR 96.8 69.8 42% 103 29.9 0.0
31 14:35 SE 14 G 20 6.00 Fair with Haze CLR 98.6 71.6 42% 108 29.91 0.0
31 14:15 E 10 G 21 6.00 Fair with Haze CLR 98.6 71.6 42% 108 29.91 0.0
31 13:55 E 8 G 17 5.00 A Few Clouds with Haze FEW050 96.8 71.6 44% 105 29.92 0.0
31 13:35 E 10 G 17 5.00 A Few Clouds with Haze FEW050 95 73.4 50% 105 29.93 0.0
31 13:15 SE 9 5.00 Fair with Haze CLR 96.8 73.4 47% 107 29.95 0.0
31 12:55 SE 8 G 16 6.00 Fair with Haze CLR 93.2 73.4 53% 103 29.95 0.0
31 12:35 SE 10 6.00 Fair with Haze CLR 91.4 75.2 59% 103 29.96 0.0
31 12:15 E 6 5.00 Fair with Haze CLR 91.4 75.2 59% 103 29.97 0.0
31 11:55 E 10 5.00 A Few Clouds with Haze FEW029 89.6 75.2 63% 100 29.97 0.0
31 11:35 Vrbl 6 G 14 5.00 Mostly Cloudy with Haze BKN027 87.8 75.2 66% 98 29.98 0.0
31 11:15 E 8 G 14 5.00 Mostly Cloudy with Haze BKN024 BKN029 86 75.2 70% 95 29.98 0.0
31 10:55 S 8 5.00 Overcast with Haze OVC023 86 75.2 70% 95 29.98 0.0
31 10:35 SE 9 5.00 Overcast with Haze OVC022 84.2 75.2 74% 92 29.98 0.0
31 10:15 SE 8 5.00 Overcast with Haze OVC020 84.2 77 79% 94 29.98 0.0
31 09:55 SE 6 G 13 5.00 Overcast with Haze OVC021 82.4 77 84% 91 29.97 0.0
31 09:30 E 12 5.00 Overcast with Haze OVC021 80.6 77 89% 87 29.97 0.0
31 09:15 E 10 5.00 Overcast with Haze OVC022 80.6 77 89% 87 29.98 0.0
31 08:55 E 10 5.00 Fog/Mist OVC023 80.6 77 89% 87 29.97 0.0
31 08:35 E 9 5.00 Fog/Mist OVC024 80.6 77 89% 87 29.97 0.0
31 08:10 E 8 5.00 Fog/Mist SCT027 78.8 77 94% 83 29.96 0.0
31 07:55 E 8 5.00 Fog/Mist CLR 78.8 75.2 89% 82 29.95 0.0
31 07:35 E 6 5.00 Fog/Mist CLR 78.8 75.2 89% 82 29.95 0.0
31 07:15 E 7 7.00 Fair CLR 78.8 75.2 89% 82 29.94 0.0
31 06:50 E 8 7.00 Fair CLR 78.8 75.2 89% 82 29.93 0.0
31 06:35 E 8 7.00 Fair CLR 78.8 75.2 89% 82 29.93 0.0
31 06:10 E 9 7.00 Fair CLR 78.8 73.4 84% 82 29.92 0.0
31 05:55 E 8 8.00 Fair CLR 78.8 73.4 84% 82 29.92 0.0
31 05:35 E 9 7.00 Fair CLR 80.6 73.4 79% 85 29.91 0.0
31 05:15 E 10 7.00 Fair CLR 80.6 73.4 79% 85 29.91 0.0
31 04:55 E 10 8.00 Fair CLR 82.4 73.4 74% 88 29.91 0.0
31 04:35 E 10 G 16 8.00 Fair CLR 82.4 73.4 74% 88 29.91 0.0
31 04:15 E 12 G 18 7.00 Fair CLR 82.4 73.4 74% 88 29.91 0.0
31 03:55 SE 12 7.00 Fair CLR 82.4 73.4 74% 88 29.92 0.0
31 03:35 SE 10 G 17 7.00 Fair CLR 84.2 73.4 70% 91 29.92 0.0
31 03:10 SE 13 G 20 7.00 Partly Cloudy SCT085 84.2 73.4 70% 91 29.92 0.0
31 02:55 SE 15 G 23 7.00 Fair CLR 84.2 73.4 70% 91 29.92 0.0
31 02:35 SE 14 G 24 7.00 Fair CLR 84.2 73.4 70% 91 29.92 0.0
31 02:15 SE 15 8.00 Fair CLR 86 73.4 66% 93 29.92 0.0
31 01:55 SE 13 G 21 8.00 A Few Clouds FEW085 86 73.4 66% 93 29.92 0.0
31 01:35 SE 16 8.00 Mostly Cloudy BKN090 86 73.4 66% 93 29.92 0.0
31 01:15 SE 15 G 22 8.00 A Few Clouds FEW085 86 73.4 66% 93 29.92 0.0
31 00:55 SE 14 G 20 8.00 Partly Cloudy SCT085 87.8 73.4 62% 96 29.92 0.0
31 00:35 SE 14 G 23 9.00 Fair CLR 87.8 71.6 59% 94 29.91 0.0
31 00:15 SE 17 G 23 8.00 Fair CLR 89.6 71.6 55% 96 29.91 0.0
30 23:55 SE 20 G 29 7.00 Fair CLR 89.6 71.6 55% 96 29.9 0.0
30 23:35 E 13 G 20 9.00 Fair CLR 89.6 69.8 52% 95 29.9 0.0
30 23:15 E 15 G 21 9.00 Fair CLR 91.4 68 46% 96 29.89 0.0
30 22:55 E 16 10.00 Fair CLR 91.4 64.4 41% 93 29.88 0.0
30 22:35 E 8 10.00 Fair CLR 89.6 62.6 41% 90 29.87 0.0
30 22:15 E 8 10.00 Fair CLR 91.4 62.6 38% 92 29.87 0.0
30 21:55 E 8 10.00 Fair CLR 93.2 62.6 36% 94 29.86 0.0
30 21:35 E 8 9.00 Fair CLR 93.2 64.4 39% 95 29.86 0.0
30 21:15 E 8 10.00 Fair CLR 93.2 64.4 39% 95 29.85 0.0
30 20:55 E 9 9.00 Fair CLR 95 64.4 36% 97 29.84 0.0
30 20:35 E 8 10.00 Fair CLR 95 64.4 36% 97 29.84 0.0
30 20:15 E 9 8.00 Fair CLR 96.8 62.6 32% 98 29.84 0.0
30 19:55 E 9 9.00 Fair CLR 96.8 62.6 32% 98 29.83 0.0
30 19:35 E 13 G 18 8.00 Fair CLR 98.6 62.6 31% 100 29.82 0.0
30 19:15 E 12 8.00 Fair CLR 98.6 62.6 31% 100 29.82 0.0
30 18:50 E 13 9.00 A Few Clouds FEW085 100.4 64.4 31% 104 29.82 0.0
30 18:35 E 13 9.00 A Few Clouds FEW085 100.4 64.4 31% 104 29.82 0.0
30 18:15 SE 9 9.00 Fair CLR 100.4 64.4 31% 104 29.82 0.0
30 17:50 E 15 8.00 Fair CLR 102.2 64.4 29% 106 29.82 0.0
30 17:35 E 10 9.00 Fair CLR 102.2 62.6 27% 104 29.82 0.0
30 17:15 E 14 8.00 Fair CLR 102.2 62.6 27% 104 29.82 0.0
30 16:50 E 12 G 20 8.00 Fair CLR 102.2 62.6 27% 104 29.83 0.0
30 16:35 Vrbl 7 G 17 9.00 Fair CLR 100.4 62.6 29% 102 29.83 0.0
30 16:15 E 9 G 18 9.00 Fair CLR 100.4 62.6 29% 102 29.84 0.0
30 15:55 S 9 7.00 Fair CLR 100.4 64.4 31% 104 29.86 0.0
30 15:35 SE 9 9.00 Fair CLR 100.4 64.4 31% 104 29.87 0.0
30 15:15 SE 10 G 16 9.00 Fair CLR 98.6 66.2 35% 103 29.88 0.0
30 14:50 SE 13 8.00 A Few Clouds FEW065 98.6 66.2 35% 103 29.9 0.0
30 14:35 Vrbl 7 G 18 8.00 Partly Cloudy SCT065 100.4 68 35% 106 29.9 0.0
30 14:15 SE 9 G 16 8.00 Partly Cloudy SCT065 SCT080 98.6 68 37% 104 29.91 0.0
30 13:50 Vrbl 7 G 18 9.00 A Few Clouds FEW055 96.8 69.8 42% 103 29.93 0.0
30 13:35 SE 10 9.00 A Few Clouds FEW055 96.8 69.8 42% 103 29.94 0.0
30 13:15 SE 12 8.00 Fair CLR 98.6 71.6 42% 108 29.95 0.0
30 12:50 E 12 8.00 Fair CLR 95 71.6 47% 103 29.96 0.0
30 12:35 E 10 9.00 Fair CLR 95 71.6 47% 103 29.97 0.0
30 12:15 E 7 G 13 8.00 Fair CLR 93.2 73.4 53% 103 29.97 0.0
30 11:50 Vrbl 6 G 13 8.00 Fair CLR 91.4 73.4 56% 100 29.99 0.0
30 11:35 Vrbl 5 G 12 8.00 Fair CLR 91.4 75.2 59% 103 29.99 0.0
30 11:15 Vrbl 5 G 12 8.00 Fair CLR 89.6 75.2 63% 100 29.99 0.0
30 10:50 Vrbl 5 8.00 Fair CLR 87.8 75.2 66% 98 29.99 0.0
30 10:35 E 8 8.00 Fair CLR 87.8 75.2 66% 98 29.99 0.0
30 10:15 Vrbl 6 G 13 8.00 Fair CLR 86 75.2 70% 95 29.99 0.0
30 09:50 SE 7 7.00 Fair CLR 84.2 75.2 74% 92 29.99 0.0
30 09:35 Vrbl 6 G 13 7.00 A Few Clouds FEW018 82.4 75.2 79% 89 29.99 0.0
30 09:15 SE 7 8.00 Fair CLR 82.4 75.2 79% 89 29.99 0.0
30 08:50 E 8 8.00 Fair CLR 80.6 75.2 84% 86 29.99 0.0
30 08:35 E 10 8.00 Fair CLR 80.6 75.2 84% 86 29.99 0.0
30 08:15 E 9 8.00 Fair CLR 78.8 75.2 89% 82 29.98 0.0
30 07:50 E 7 8.00 Fair CLR 77 73.4 89% 78 29.98 0.0
30 07:35 E 7 7.00 Fair CLR 77 73.4 89% 78 29.97 0.0
30 07:15 E 8 9.00 Fair CLR 78.8 73.4 84% 82 29.96 0.0
30 06:50 E 8 10.00 Fair CLR 78.8 73.4 84% 82 29.96 0.0
30 06:35 E 8 9.00 Fair CLR 78.8 73.4 84% 82 29.95 0.0
30 06:15 E 8 10.00 Fair CLR 78.8 73.4 84% 82 29.95 0.0
30 05:50 E 9 10.00 Fair CLR 80.6 73.4 79% 85 29.95 0.0
30 05:35 E 9 9.00 Fair CLR 80.6 73.4 79% 85 29.94 0.0
30 05:15 E 8 10.00 Fair CLR 80.6 73.4 79% 85 29.94 0.0
30 04:50 E 9 10.00 Fair CLR 80.6 73.4 79% 85 29.94 0.0
30 04:35 E 9 10.00 Fair CLR 82.4 73.4 74% 88 29.94 0.0
30 04:15 E 9 9.00 Fair CLR 82.4 73.4 74% 88 29.94 0.0
30 03:50 SE 9 10.00 Fair CLR 82.4 73.4 74% 88 29.94 0.0
30 03:35 E 9 9.00 Fair CLR 82.4 73.4 74% 88 29.94 0.0
30 03:15 SE 12 10.00 Fair CLR 84.2 71.6 66% 90 29.94 0.0
30 02:50 SE 12 G 18 10.00 Fair CLR 84.2 71.6 66% 90 29.95 0.0
30 02:35 SE 13 9.00 Fair CLR 84.2 71.6 66% 90 29.95 0.0
30 02:15 SE 10 G 20 10.00 Fair CLR 84.2 71.6 66% 90 29.95 0.0
30 01:55 SE 12 G 17 10.00 Fair CLR 84.2 71.6 66% 90 29.95 0.0
30 01:35 SE 13 10.00 Fair CLR 86 71.6 62% 92 29.96 0.0
30 01:15 SE 12 10.00 Fair CLR 86 71.6 62% 92 29.96 0.0
30 00:55 SE 10 10.00 Fair CLR 86 71.6 62% 92 29.96 0.0
30 00:35 SE 9 10.00 Fair CLR 86 71.6 62% 92 29.96 0.0
30 00:10 SE 10 10.00 Fair CLR 86 71.6 62% 92 29.95 0.0
29 23:55 SE 12 10.00 Fair CLR 87.8 71.6 59% 94 29.95 0.0
29 23:35 SE 12 10.00 Fair CLR 87.8 69.8 55% 93 29.95 0.0
29 23:15 SE 12 10.00 Fair CLR 87.8 68 52% 91 29.95 0.0
29 22:50 SE 14 G 20 10.00 Fair CLR 89.6 68 49% 93 29.94 0.0
29 22:35 SE 14 G 23 10.00 Fair CLR 89.6 68 49% 93 29.94 0.0
29 22:15 SE 13 G 23 10.00 Fair CLR 91.4 64.4 41% 93 29.93 0.0
29 21:55 E 7 10.00 Fair CLR 91.4 62.6 38% 92 29.91 0.0
29 21:35 E 8 10.00 Fair CLR 91.4 62.6 38% 92 29.9 0.0
29 21:15 E 8 10.00 Fair CLR 93.2 62.6 36% 94 29.9 0.0
29 20:55 E 9 10.00 Fair CLR 93.2 62.6 36% 94 29.89 0.0
29 20:35 E 8 10.00 Fair CLR 95 62.6 34% 96 29.89 0.0
29 20:10 E 10 9.00 Fair CLR 96.8 62.6 32% 98 29.88 0.0
29 19:55 E 12 9.00 Fair CLR 96.8 60.8 30% 97 29.88 0.0
29 19:35 E 13 9.00 Fair CLR 98.6 62.6 31% 100 29.88 0.0
29 19:15 E 7 G 16 9.00 Fair CLR 98.6 60.8 29% 99 29.88 0.0
29 18:50 E 17 9.00 Fair CLR 100.4 62.6 29% 102 29.88 0.0
29 18:35 E 9 G 22 9.00 Fair CLR 100.4 62.6 29% 102 29.88 0.0
29 18:10 E 10 G 16 9.00 Fair CLR 100.4 62.6 29% 102 29.88 0.0
29 17:50 SE 9 G 17 9.00 Fair CLR 100.4 62.6 29% 102 29.88 0.0
29 17:30 E 13 G 21 9.00 Fair CLR 100.4 62.6 29% 102 29.88 0.0
29 17:15 E 9 G 20 9.00 Fair CLR 100.4 64.4 31% 104 29.89 0.0
29 16:50 E 9 G 16 9.00 Fair CLR 100.4 62.6 29% 102 29.9 0.0
29 16:30 E 8 G 18 9.00 Fair CLR 100.4 64.4 31% 104 29.91 0.0
29 16:10 SE 10 G 21 9.00 A Few Clouds FEW075 100.4 64.4 31% 104 29.92 0.0
29 15:50 E 13 G 18 7.00 A Few Clouds FEW075 100.4 64.4 31% 104 29.93 0.0
29 15:35 SE 14 9.00 Partly Cloudy SCT075 100.4 64.4 31% 104 29.93 0.0
29 15:10 SE 7 G 16 8.00 A Few Clouds FEW075 102.2 64.4 29% 106 29.94 0.0
29 14:50 SE 8 8.00 A Few Clouds FEW070 100.4 66.2 33% 105 29.95 0.0
29 14:35 SE 8 G 20 9.00 Fair CLR 100.4 64.4 31% 104 29.96 0.0
29 14:10 Vrbl 7 G 18 9.00 A Few Clouds FEW060 98.6 66.2 35% 103 29.98 0.0
29 13:50 SE 8 G 15 8.00 A Few Clouds FEW060 98.6 66.2 35% 103 29.99 0.0
29 13:30 Vrbl 6 G 21 9.00 A Few Clouds FEW060 98.6 68 37% 104 30 0.0
29 13:10 E 10 G 20 7.00 A Few Clouds FEW060 95 69.8 44% 101 30.01 0.0
29 12:50 E 8 G 16 7.00 Fair CLR 96.8 69.8 42% 103 30.01 0.0
29 12:30 Vrbl 7 G 14 8.00 Fair CLR 95 71.6 47% 103 30.02 0.0
29 12:15 SE 8 G 15 7.00 Fair CLR 93.2 71.6 50% 101 30.03 0.0
29 11:50 E 8 8.00 Fair CLR 91.4 73.4 56% 100 30.04 0.0
29 11:35 SE 8 G 16 8.00 Fair CLR 91.4 73.4 56% 100 30.04 0.0
29 11:10 Vrbl 6 G 13 8.00 Fair CLR 89.6 75.2 63% 100 30.05 0.0
29 10:55 Vrbl 7 7.00 Fair CLR 87.8 73.4 62% 96 30.05 0.0
29 10:35 E 8 8.00 Fair CLR 86 73.4 66% 93 30.05 0.0
29 10:10 SE 9 7.00 Fair CLR 86 73.4 66% 93 30.04 0.0
29 09:50 SE 8 8.00 Fair CLR 84.2 75.2 74% 92 30.04 0.0
29 09:30 E 8 7.00 Fair CLR 82.4 75.2 79% 89 30.04 0.0
29 09:10 E 10 8.00 Fair CLR 82.4 75.2 79% 89 30.04 0.0
29 08:50 E 8 8.00 Fair CLR 80.6 73.4 79% 85 30.04 0.0
29 08:35 E 10 9.00 Fair CLR 78.8 73.4 84% 82 30.03 0.0
29 08:10 E 8 9.00 Fair CLR 77 71.6 83% 78 30.03 0.0
29 07:35 E 7 8.00 Fair CLR 75.2 71.6 89% 75 30.02 0.0
29 07:10 E 6 10.00 Fair CLR 75.2 71.6 89% 75 30.01 0.0
29 06:35 E 8 10.00 Fair CLR 75.2 69.8 83% 75 30 0.0
29 06:10 NE 8 10.00 Fair CLR 77 71.6 83% 78 30 0.0
29 05:55 NE 7 10.00 Fair CLR 77 71.6 83% 78 30 0.0
29 05:30 NE 9 10.00 Fair CLR 77 71.6 83% 78 30.01 0.0
29 05:10 E 8 9.00 Fair CLR 78.8 71.6 79% 82 30 0.0
29 04:50 E 7 10.00 Fair CLR 78.8 69.8 74% 81 30 0.0
29 04:35 E 9 10.00 Fair CLR 78.8 69.8 74% 81 30 0.0
29 04:15 E 8 10.00 Fair CLR 78.8 69.8 74% 81 29.99 0.0
29 03:50 E 10 10.00 Fair CLR 78.8 69.8 74% 81 29.99 0.0
29 03:30 E 12 10.00 Fair CLR 80.6 69.8 70% 84 29.99 0.0
29 03:10 E 8 10.00 Fair CLR 80.6 68 66% 83 29.99 0.0
29 02:50 E 7 10.00 Fair CLR 80.6 68 66% 83 29.98 0.0
29 02:30 E 6 10.00 Fair CLR 80.6 68 66% 83 29.98 0.0
29 02:10 E 5 10.00 Fair CLR 82.4 68 62% 85 29.98 0.0
29 01:55 Calm 10.00 Fair CLR 82.4 68 62% 85 29.97 0.0
29 01:35 Calm 10.00 Fair CLR 84.2 68 58% 87 29.98 0.0
29 01:10 E 8 10.00 Fair CLR 84.2 68 58% 87 29.99 0.0
29 00:55 SE 9 G 15 10.00 Fair CLR 86 68 55% 89 29.99 0.0
29 00:35 SE 9 G 17 10.00 Fair CLR 86 68 55% 89 29.99 0.0
29 00:15 E 12 G 17 9.00 Fair CLR 87.8 68 52% 91 29.99 0.0
28 23:55 SE 13 G 22 10.00 Fair CLR 87.8 68 52% 91 29.99 0.0
28 23:35 E 17 G 24 10.00 Fair CLR 89.6 68 49% 93 29.99 0.0
28 23:10 SE 16 G 23 10.00 Partly Cloudy SCT095 89.6 64.4 43% 91 29.99 0.0
28 22:55 SE 13 G 18 10.00 Mostly Cloudy BKN095 91.4 64.4 41% 93 29.98 0.0
28 22:35 E 10 10.00 Fair CLR 91.4 64.4 41% 93 29.96 0.0
28 22:10 SE 8 9.00 Fair CLR 93.2 62.6 36% 94 29.95 0.0
28 21:55 SE 7 10.00 Fair CLR 93.2 62.6 36% 94 29.94 0.0
28 21:35 SE 9 10.00 Fair CLR 95 62.6 34% 96 29.93 0.0
28 21:10 SE 9 9.00 Fair CLR 95 62.6 34% 96 29.92 0.0
28 20:55 SE 9 10.00 Fair CLR 95 62.6 34% 96 29.92 0.0
28 20:35 E 9 10.00 Fair CLR 96.8 62.6 32% 98 29.91 0.0
28 20:10 E 9 9.00 Fair CLR 96.8 62.6 32% 98 29.91 0.0
28 19:55 E 8 9.00 Fair CLR 98.6 62.6 31% 100 29.9 0.0
28 19:35 E 10 9.00 Fair CLR 98.6 62.6 31% 100 29.89 0.0
28 19:10 E 7 G 14 9.00 Fair CLR 100.4 62.6 29% 102 29.89 0.0
28 18:50 SE 9 8.00 Fair CLR 100.4 62.6 29% 102 29.88 0.0
28 18:35 SE 8 G 16 8.00 Fair CLR 100.4 64.4 31% 104 29.89 0.0
28 18:10 SE 10 9.00 A Few Clouds FEW080 102.2 64.4 29% 106 29.89 0.0
28 17:50 SE 9 8.00 Fair CLR 102.2 64.4 29% 106 29.89 0.0
28 17:35 E 10 8.00 A Few Clouds FEW080 100.4 64.4 31% 104 29.89 0.0
Date Time (cdt) Wind (mph) Vis. (mi.) Weather Sky Cond. Air Dwpt Max. Min. Relative Humidity Wind Chill (°F) Heat Index (°F) altimeter (in) sea level (mb) 1 hr 3 hr 6 hr
6 hour
Temperature (ºF) Pressure Precipitation (in)